Time;durP1;ratioP1;P1;durP2;ratioP2;P2;SDS_P1;SDS_P2;PMS_P1;PMS_P2;Temp;Humidity;BMP_temperature;BMP_pressure;BME280_temperature;BME280_humidity;BME280_pressure;Samples;Min_cycle;Max_cycle;Signal;HPM_P1;HPM_P2
2023/04/13 00:00:40;;;;;;;;;;;7.40;99.90;;;;;;5052291;28;19931;-80
2023/04/13 00:03:10;;;;;;;;;;;7.40;99.90;;;;;;5054185;28;19944;-80
2023/04/13 00:05:37;;;;;;;;;;;7.50;99.90;;;;;;5054938;28;20303;-80
2023/04/13 00:08:05;;;;;;;;;;;7.50;99.90;;;;;;5040785;28;20347;-81
2023/04/13 00:10:34;;;;;;;;;;;7.60;99.90;;;;;;5066770;28;20375;-80
2023/04/13 00:13:01;;;;;;;;;;;7.60;99.90;;;;;;5051016;28;19933;-81
2023/04/13 00:15:28;;;;;;;;;;;7.60;99.90;;;;;;5067894;28;20027;-78
2023/04/13 00:17:55;;;;;;;;;;;7.70;99.90;;;;;;5048769;28;19933;-78
2023/04/13 00:20:24;;;;;;;;;;;7.70;99.90;;;;;;5049406;28;19932;-78
2023/04/13 00:22:50;;;;;;;;;;;7.80;99.90;;;;;;5048525;28;19924;-78
2023/04/13 00:25:17;;;;;;;;;;;7.80;99.90;;;;;;5036095;28;20043;-79
2023/04/13 00:27:44;;;;;;;;;;;7.90;99.90;;;;;;5048825;28;20355;-79
2023/04/13 00:30:12;;;;;;;;;;;7.90;99.90;;;;;;5044779;28;19929;-78
2023/04/13 00:32:41;;;;;;;;;;;7.90;99.90;;;;;;5042958;28;19945;-79
2023/04/13 00:35:08;;;;;;;;;;;7.90;99.90;;;;;;5047354;28;19975;-79
2023/04/13 00:37:37;;;;;;;;;;;7.90;99.90;;;;;;5041840;28;20031;-79
2023/04/13 00:40:06;;;;;;;;;;;7.90;99.90;;;;;;5043689;28;19937;-78
2023/04/13 00:42:33;;;;;;;;;;;7.80;99.90;;;;;;5045535;28;20015;-78
2023/04/13 00:45:00;;;;;;;;;;;7.80;99.90;;;;;;5043639;28;19979;-78
2023/04/13 00:47:28;;;;;;;;;;;7.80;99.90;;;;;;5045202;28;19925;-75
2023/04/13 00:49:55;;;;;;;;;;;7.70;99.90;;;;;;5050708;28;19924;-76
2023/04/13 00:52:23;;;;;;;;;;;7.70;99.90;;;;;;5051134;28;19929;-77
2023/04/13 00:54:55;;;;;;;;;;;7.60;99.90;;;;;;5046293;28;19940;-79
2023/04/13 00:57:23;;;;;;;;;;;7.60;99.90;;;;;;5040097;28;19943;-79
2023/04/13 00:59:51;;;;;;;;;;;7.50;99.90;;;;;;5043167;28;19956;-79
2023/04/13 01:02:18;;;;;;;;;;;7.50;99.90;;;;;;5041626;28;19933;-80
2023/04/13 01:04:48;;;;;;;;;;;7.50;99.90;;;;;;5056045;28;19933;-80
2023/04/13 01:07:19;;;;;;;;;;;7.50;99.90;;;;;;5036782;28;20565;-80
2023/04/13 01:09:51;;;;;;;;;;;7.50;99.90;;;;;;5044863;28;20354;-81
2023/04/13 01:12:26;;;;;;;;;;;7.50;99.90;;;;;;5045083;28;19986;-81
2023/04/13 01:14:57;;;;;;;;;;;7.50;99.90;;;;;;5062622;28;19933;-81
2023/04/13 01:17:25;;;;;;;;;;;7.60;99.90;;;;;;5044872;28;19956;-81
2023/04/13 01:19:57;;;;;;;;;;;7.60;99.90;;;;;;5045316;28;19928;-81
2023/04/13 01:22:27;;;;;;;;;;;7.60;99.90;;;;;;5039510;28;19956;-81
2023/04/13 01:25:02;;;;;;;;;;;7.60;99.90;;;;;;5043852;28;20385;-81
2023/04/13 01:27:36;;;;;;;;;;;7.70;99.90;;;;;;5046168;28;19969;-80
2023/04/13 01:30:05;;;;;;;;;;;7.70;99.90;;;;;;5044215;28;20452;-81
2023/04/13 01:32:33;;;;;;;;;;;7.80;99.90;;;;;;5043705;28;19960;-81
2023/04/13 01:35:00;;;;;;;;;;;7.80;99.90;;;;;;5062236;28;19986;-81
2023/04/13 01:37:28;;;;;;;;;;;7.90;99.90;;;;;;5045002;28;19928;-80
2023/04/13 01:39:57;;;;;;;;;;;7.90;99.90;;;;;;5038852;28;19937;-78
2023/04/13 01:42:28;;;;;;;;;;;7.90;99.90;;;;;;5041284;28;19929;-81
2023/04/13 01:44:56;;;;;;;;;;;7.90;99.90;;;;;;5044638;28;19939;-82
2023/04/13 01:47:25;;;;;;;;;;;8.00;99.90;;;;;;5043849;28;19925;-81
2023/04/13 01:50:03;;;;;;;;;;;8.00;99.90;;;;;;5043724;28;19979;-81
2023/04/13 01:52:50;;;;;;;;;;;8.00;99.90;;;;;;5038827;28;19928;-81
2023/04/13 01:55:17;;;;;;;;;;;8.10;99.90;;;;;;5058323;28;20499;-81
2023/04/13 01:57:51;;;;;;;;;;;8.10;99.90;;;;;;5043595;28;20982;-81
2023/04/13 02:00:20;;;;;;;;;;;8.10;99.90;;;;;;5045344;28;19932;-81
2023/04/13 02:02:48;;;;;;;;;;;8.20;99.90;;;;;;5048864;28;19928;-81
2023/04/13 02:05:15;;;;;;;;;;;8.20;99.90;;;;;;5047525;28;20011;-80
2023/04/13 02:07:44;;;;;;;;;;;8.20;99.90;;;;;;5042404;28;19925;-80
2023/04/13 02:10:12;;;;;;;;;;;8.20;99.90;;;;;;5044047;28;19956;-81
2023/04/13 02:12:39;;;;;;;;;;;8.20;99.90;;;;;;5042032;28;19935;-80
2023/04/13 02:15:07;;;;;;;;;;;8.20;99.90;;;;;;5045635;28;19925;-81
2023/04/13 02:17:35;;;;;;;;;;;8.20;99.90;;;;;;5044758;28;20447;-81
2023/04/13 02:20:07;;;;;;;;;;;8.30;99.90;;;;;;5060413;28;20011;-80
2023/04/13 02:22:38;;;;;;;;;;;8.20;99.90;;;;;;5046434;28;19948;-83
2023/04/13 02:25:05;;;;;;;;;;;8.20;99.90;;;;;;5062893;28;20020;-83
2023/04/13 02:27:33;;;;;;;;;;;8.20;99.90;;;;;;5062232;28;19925;-83
2023/04/13 02:30:00;;;;;;;;;;;8.30;99.90;;;;;;5063406;28;19925;-83
2023/04/13 02:32:30;;;;;;;;;;;8.20;99.90;;;;;;5062898;28;19974;-84
2023/04/13 02:34:58;;;;;;;;;;;8.30;99.90;;;;;;5058904;28;19925;-83
2023/04/13 02:37:26;;;;;;;;;;;7.80;99.90;;;;;;5055958;28;19929;-83
2023/04/13 02:39:54;;;;;;;;;;;8.30;99.90;;;;;;5060360;28;19935;-82
2023/04/13 02:42:22;;;;;;;;;;;8.30;99.90;;;;;;5054245;28;19942;-83
2023/04/13 02:44:49;;;;;;;;;;;8.80;99.90;;;;;;5053284;28;19939;-81
2023/04/13 02:47:17;;;;;;;;;;;8.20;99.90;;;;;;5052746;28;19925;-81
2023/04/13 02:53:14;;;;;;;;;;;8.30;99.90;;;;;;5069075;28;19950;-81
2023/04/13 02:55:44;;;;;;;;;;;8.40;99.90;;;;;;5057910;28;20002;-83
2023/04/13 02:58:13;;;;;;;;;;;8.30;99.90;;;;;;5056787;28;19921;-83
2023/04/13 03:00:44;;;;;;;;;;;8.40;99.90;;;;;;5053619;28;19925;-83
2023/04/13 03:03:13;;;;;;;;;;;8.40;99.90;;;;;;5060768;28;19952;-83
2023/04/13 03:05:49;;;;;;;;;;;8.40;99.90;;;;;;5065643;28;19939;-84
2023/04/13 03:08:25;;;;;;;;;;;8.40;99.90;;;;;;5062670;28;19935;-83
2023/04/13 03:11:12;;;;;;;;;;;8.40;99.90;;;;;;5062448;28;19925;-84
2023/04/13 03:13:45;;;;;;;;;;;8.40;99.90;;;;;;5060231;28;19971;-84
2023/04/13 03:16:16;;;;;;;;;;;8.40;99.90;;;;;;5054175;28;19926;-83
2023/04/13 03:18:44;;;;;;;;;;;8.40;99.90;;;;;;5069116;28;19931;-84
2023/04/13 03:21:12;;;;;;;;;;;8.40;99.90;;;;;;5050981;22;19936;-78
2023/04/13 03:23:48;;;;;;;;;;;8.40;99.90;;;;;;5046557;28;19933;-79
2023/04/13 03:26:17;;;;;;;;;;;8.50;99.90;;;;;;5022892;28;19933;-79
2023/04/13 03:28:46;;;;;;;;;;;8.40;99.90;;;;;;5010595;28;19941;-78
2023/04/13 03:31:13;;;;;;;;;;;8.40;99.90;;;;;;5012378;28;19932;-80
2023/04/13 03:33:40;;;;;;;;;;;8.40;99.90;;;;;;5011307;28;19992;-83
2023/04/13 03:36:08;;;;;;;;;;;8.40;99.90;;;;;;5008029;28;20837;-80
2023/04/13 03:38:37;;;;;;;;;;;8.40;99.90;;;;;;5007941;28;19929;-81
2023/04/13 03:41:05;;;;;;;;;;;8.40;99.90;;;;;;5010903;28;19930;-81
2023/04/13 03:43:33;;;;;;;;;;;8.40;99.90;;;;;;5019289;28;19995;-78
2023/04/13 03:46:11;;;;;;;;;;;8.40;99.90;;;;;;5005521;28;20015;-78
2023/04/13 03:48:39;;;;;;;;;;;8.40;99.90;;;;;;5020053;28;20005;-78
2023/04/13 03:51:07;;;;;;;;;;;8.40;99.90;;;;;;5015894;28;20016;-77
2023/04/13 03:53:45;;;;;;;;;;;8.40;99.90;;;;;;5039001;28;19929;-78
2023/04/13 03:56:14;;;;;;;;;;;8.40;99.90;;;;;;5023627;28;20007;-77
2023/04/13 03:58:41;;;;;;;;;;;8.40;99.90;;;;;;5027924;28;19933;-78
2023/04/13 04:01:09;;;;;;;;;;;8.30;99.90;;;;;;5043119;28;19934;-78
2023/04/13 04:03:44;;;;;;;;;;;8.30;99.90;;;;;;5021504;28;19964;-78
2023/04/13 04:06:11;;;;;;;;;;;8.30;99.90;;;;;;5013073;28;19914;-78
2023/04/13 04:08:42;;;;;;;;;;;8.30;99.90;;;;;;5045260;28;19941;-77
2023/04/13 04:11:22;;;;;;;;;;;8.30;99.90;;;;;;5029699;28;19933;-78
2023/04/13 04:13:49;;;;;;;;;;;8.30;99.90;;;;;;5030968;28;19969;-78
2023/04/13 04:16:16;;;;;;;;;;;8.30;99.90;;;;;;5044422;28;19929;-79
2023/04/13 04:18:48;;;;;;;;;;;8.20;99.90;;;;;;5018655;28;20002;-79
2023/04/13 04:21:20;;;;;;;;;;;8.20;99.90;;;;;;5027052;28;19933;-79
2023/04/13 04:23:47;;;;;;;;;;;8.20;99.90;;;;;;5022990;28;19933;-79
2023/04/13 04:26:14;;;;;;;;;;;8.20;99.90;;;;;;5013086;28;19968;-79
2023/04/13 04:28:50;;;;;;;;;;;8.20;99.90;;;;;;5016199;28;19933;-79
2023/04/13 04:31:20;;;;;;;;;;;8.20;99.90;;;;;;5011629;28;19937;-79
2023/04/13 04:33:51;;;;;;;;;;;8.20;99.90;;;;;;5009629;28;19992;-79
2023/04/13 04:36:19;;;;;;;;;;;8.20;99.90;;;;;;5029003;28;19933;-80
2023/04/13 04:39:01;;;;;;;;;;;8.20;99.90;;;;;;5030253;28;19960;-82
2023/04/13 04:41:30;;;;;;;;;;;8.20;99.90;;;;;;5030189;28;20475;-80
2023/04/13 04:44:03;;;;;;;;;;;8.10;99.90;;;;;;5031284;28;19965;-81
2023/04/13 04:46:37;;;;;;;;;;;8.10;99.90;;;;;;5024648;28;20317;-80
2023/04/13 04:49:05;;;;;;;;;;;8.20;99.90;;;;;;5027587;28;19978;-81
2023/04/13 04:51:32;;;;;;;;;;;8.10;99.90;;;;;;5015390;28;19926;-80
2023/04/13 04:54:00;;;;;;;;;;;8.10;99.90;;;;;;5025299;28;19930;-79
2023/04/13 04:56:28;;;;;;;;;;;8.10;99.90;;;;;;5011930;28;19999;-79
2023/04/13 04:58:55;;;;;;;;;;;8.10;99.90;;;;;;5008625;28;20393;-80
2023/04/13 05:01:33;;;;;;;;;;;8.10;99.90;;;;;;5007065;28;19940;-79
2023/04/13 05:04:07;;;;;;;;;;;8.10;99.90;;;;;;5008741;28;20033;-80
2023/04/13 05:06:40;;;;;;;;;;;8.10;99.90;;;;;;5005468;28;20302;-79
2023/04/13 05:09:08;;;;;;;;;;;8.10;99.90;;;;;;5018037;28;19934;-80
2023/04/13 05:11:37;;;;;;;;;;;8.20;99.90;;;;;;5009770;28;19934;-79
2023/04/13 05:14:07;;;;;;;;;;;8.20;99.90;;;;;;5013537;28;20394;-79
2023/04/13 05:16:35;;;;;;;;;;;8.20;99.90;;;;;;5010244;28;20016;-79
2023/04/13 05:19:11;;;;;;;;;;;8.20;99.90;;;;;;5010251;28;19996;-79
2023/04/13 05:21:48;;;;;;;;;;;8.20;99.90;;;;;;5009106;28;20402;-78
2023/04/13 05:24:15;;;;;;;;;;;8.20;99.90;;;;;;5010613;28;19936;-79
2023/04/13 05:26:42;;;;;;;;;;;8.20;99.90;;;;;;5012895;28;19933;-79
2023/04/13 05:29:11;;;;;;;;;;;8.30;99.90;;;;;;5015225;28;19935;-79
2023/04/13 05:31:42;;;;;;;;;;;8.30;99.90;;;;;;5013269;28;20306;-80
2023/04/13 05:34:10;;;;;;;;;;;8.40;99.90;;;;;;5013993;28;20639;-80
2023/04/13 05:36:38;;;;;;;;;;;8.60;99.90;;;;;;5013230;28;19934;-78
2023/04/13 05:39:10;;;;;;;;;;;8.80;99.90;;;;;;4999775;28;19930;-79
2023/04/13 05:41:37;;;;;;;;;;;9.00;99.90;;;;;;5010748;28;20108;-83
2023/04/13 05:44:05;;;;;;;;;;;9.00;99.90;;;;;;5001910;28;19929;-80
2023/04/13 05:46:33;;;;;;;;;;;9.10;99.90;;;;;;5013240;28;19934;-81
2023/04/13 05:49:05;;;;;;;;;;;9.10;99.90;;;;;;5027044;28;19960;-81
2023/04/13 05:51:33;;;;;;;;;;;9.20;99.90;;;;;;5025784;28;20028;-80
2023/04/13 05:53:59;;;;;;;;;;;9.40;99.90;;;;;;5026259;28;20592;-80
2023/04/13 05:56:28;;;;;;;;;;;9.70;99.90;;;;;;5027765;28;19926;-79
2023/04/13 05:58:56;;;;;;;;;;;10.10;99.90;;;;;;5008478;28;20306;-80
2023/04/13 06:01:28;;;;;;;;;;;10.20;99.90;;;;;;5008454;28;20013;-80
2023/04/13 06:03:55;;;;;;;;;;;10.20;99.90;;;;;;5030616;22;19936;31
2023/04/13 06:06:25;;;;;;;;;;;10.20;99.90;;;;;;5031677;28;19932;-79
2023/04/13 06:08:52;;;;;;;;;;;10.20;99.90;;;;;;5020652;28;20167;-78
2023/04/13 06:11:20;;;;;;;;;;;10.20;99.90;;;;;;5009874;28;19934;-80
2023/04/13 06:13:47;;;;;;;;;;;10.70;99.90;;;;;;5000491;28;19926;-79
2023/04/13 06:16:15;;;;;;;;;;;11.30;99.90;;;;;;4998908;28;19929;-80
2023/04/13 06:18:43;;;;;;;;;;;11.50;99.90;;;;;;4992278;28;20072;-81
2023/04/13 06:21:11;;;;;;;;;;;12.40;99.90;;;;;;4990216;28;19933;-79
2023/04/13 06:23:40;;;;;;;;;;;12.70;99.90;;;;;;4995736;28;20017;-80
2023/04/13 06:26:18;;;;;;;;;;;13.10;99.90;;;;;;4996649;28;19929;-80
2023/04/13 06:28:51;;;;;;;;;;;13.70;99.90;;;;;;4996197;28;19949;-80
2023/04/13 06:31:19;;;;;;;;;;;14.30;99.90;;;;;;5009495;28;19930;-78
2023/04/13 06:33:48;;;;;;;;;;;14.50;99.90;;;;;;4992517;28;20411;-79
2023/04/13 06:36:17;;;;;;;;;;;14.40;99.90;;;;;;4990207;28;20475;-77
2023/04/13 06:38:46;;;;;;;;;;;14.00;99.90;;;;;;4997297;28;19962;-78
2023/04/13 06:41:14;;;;;;;;;;;13.60;99.90;;;;;;4988554;28;19942;-78
2023/04/13 06:43:44;;;;;;;;;;;13.40;99.90;;;;;;4999345;28;19932;-77
2023/04/13 06:46:17;;;;;;;;;;;13.30;99.90;;;;;;4997324;28;20012;-78
2023/04/13 06:48:47;;;;;;;;;;;13.00;99.90;;;;;;4998143;28;20013;-78
2023/04/13 06:51:15;;;;;;;;;;;12.90;99.90;;;;;;5111828;23;19929;-82
2023/04/13 06:53:42;;;;;;;;;;;12.60;99.90;;;;;;5052166;28;19992;-79
2023/04/13 06:56:10;;;;;;;;;;;12.60;99.90;;;;;;5055817;28;19935;-82
2023/04/13 06:58:37;;;;;;;;;;;13.20;99.90;;;;;;5053054;28;19979;-81
2023/04/13 07:01:05;;;;;;;;;;;13.40;99.90;;;;;;5049265;28;19933;-79
2023/04/13 07:03:34;;;;;;;;;;;13.60;99.90;;;;;;5059735;22;19972;-72
2023/04/13 07:06:01;;;;;;;;;;;14.00;99.90;;;;;;5054420;28;19935;-74
2023/04/13 07:08:28;;;;;;;;;;;14.60;99.90;;;;;;5043841;28;20345;-73
2023/04/13 07:10:56;;;;;;;;;;;14.70;99.90;;;;;;5044128;28;20011;-75
2023/04/13 07:13:39;;;;;;;;;;;14.60;99.90;;;;;;5044439;28;19968;-74
2023/04/13 07:16:08;;;;;;;;;;;14.30;99.90;;;;;;5030665;28;19933;-74
2023/04/13 07:18:37;;;;;;;;;;;13.90;99.90;;;;;;5027152;28;19984;-74
2023/04/13 07:21:04;;;;;;;;;;;13.50;99.90;;;;;;5033944;28;19936;-73
2023/04/13 07:23:41;;;;;;;;;;;13.10;99.90;;;;;;5026704;28;19929;-75
2023/04/13 07:26:12;;;;;;;;;;;12.50;99.90;;;;;;5031423;28;20030;-75
2023/04/13 07:28:40;;;;;;;;;;;12.20;99.90;;;;;;5036034;28;20411;-74
2023/04/13 07:31:07;;;;;;;;;;;11.80;99.90;;;;;;5038641;28;20388;-78
2023/04/13 07:33:35;;;;;;;;;;;11.40;99.90;;;;;;5031294;28;19929;-74
2023/04/13 07:36:01;;;;;;;;;;;11.20;99.90;;;;;;5034321;28;20008;-73
2023/04/13 07:38:31;;;;;;;;;;;10.90;99.90;;;;;;5037502;28;19933;-73
2023/04/13 07:40:58;;;;;;;;;;;10.80;99.90;;;;;;5027084;28;19964;-77
2023/04/13 07:46:12;;;;;;;;;;;10.70;99.90;;;;;;5146129;22;19929;-73
2023/04/13 07:48:40;;;;;;;;;;;10.60;99.90;;;;;;5040895;28;20020;-73
2023/04/13 07:51:17;;;;;;;;;;;10.60;99.90;;;;;;5032868;28;19936;-75
2023/04/13 07:53:45;;;;;;;;;;;10.60;99.90;;;;;;5027038;28;19936;-73
2023/04/13 07:56:12;;;;;;;;;;;11.30;99.90;;;;;;5043483;28;19980;-73
2023/04/13 07:58:39;;;;;;;;;;;10.60;99.90;;;;;;5024100;28;19933;-72
2023/04/13 08:01:06;;;;;;;;;;;10.70;99.90;;;;;;5027700;28;19972;-73
2023/04/13 08:03:35;;;;;;;;;;;10.70;99.90;;;;;;5028765;28;19983;-73
2023/04/13 08:06:09;;;;;;;;;;;10.90;99.90;;;;;;5026802;28;19929;-73
2023/04/13 08:08:36;;;;;;;;;;;10.80;99.90;;;;;;5032527;28;19929;-73
2023/04/13 08:11:02;;;;;;;;;;;10.80;99.90;;;;;;5033284;28;19929;-73
2023/04/13 08:13:33;;;;;;;;;;;10.70;99.90;;;;;;5037418;28;19935;-73
2023/04/13 08:16:00;;;;;;;;;;;10.60;99.90;;;;;;5021461;28;19975;-73
2023/04/13 08:18:28;;;;;;;;;;;10.60;99.90;;;;;;5033532;28;19937;-71
2023/04/13 08:20:57;;;;;;;;;;;10.50;99.90;;;;;;5020780;28;20032;-72
2023/04/13 08:23:26;;;;;;;;;;;10.60;99.90;;;;;;5018416;28;20305;-72
2023/04/13 08:25:53;;;;;;;;;;;10.60;99.90;;;;;;5027807;28;20011;-72
2023/04/13 08:28:20;;;;;;;;;;;10.70;99.90;;;;;;5020039;28;19929;-72
2023/04/13 08:30:46;;;;;;;;;;;10.80;99.90;;;;;;5018786;28;20676;-74
2023/04/13 08:33:13;;;;;;;;;;;10.80;99.90;;;;;;5027388;28;19936;-72
2023/04/13 08:35:40;;;;;;;;;;;10.90;99.90;;;;;;5039567;28;19935;-74
2023/04/13 08:38:12;;;;;;;;;;;10.90;99.90;;;;;;5033906;28;19944;-73
2023/04/13 08:40:45;;;;;;;;;;;11.00;99.90;;;;;;5045109;28;20380;-73
2023/04/13 08:43:19;;;;;;;;;;;11.00;99.90;;;;;;5020380;28;19933;-73
2023/04/13 08:45:47;;;;;;;;;;;11.10;99.90;;;;;;5022061;28;20549;-73
2023/04/13 08:48:17;;;;;;;;;;;11.20;99.90;;;;;;5045331;28;19929;-73
2023/04/13 08:50:46;;;;;;;;;;;11.30;99.90;;;;;;5014015;28;19933;-73
2023/04/13 08:53:15;;;;;;;;;;;11.40;99.90;;;;;;5021512;28;20905;-74
2023/04/13 08:55:44;;;;;;;;;;;11.40;99.90;;;;;;5039893;28;19925;-74
2023/04/13 08:58:11;;;;;;;;;;;11.50;99.90;;;;;;5018613;28;20381;-76
2023/04/13 09:00:40;;;;;;;;;;;11.50;99.90;;;;;;5025979;28;19933;-75
2023/04/13 09:03:09;;;;;;;;;;;11.50;99.90;;;;;;5025595;28;20144;-74
2023/04/13 09:05:41;;;;;;;;;;;11.50;99.90;;;;;;5037949;28;20274;-74
2023/04/13 09:08:10;;;;;;;;;;;11.50;99.90;;;;;;5013780;28;19947;-76
2023/04/13 09:10:41;;;;;;;;;;;11.50;99.90;;;;;;5015331;28;20366;-75
2023/04/13 09:13:08;;;;;;;;;;;11.60;99.90;;;;;;5012455;28;19932;-75
2023/04/13 09:15:36;;;;;;;;;;;11.80;99.90;;;;;;5009493;28;19941;-75
2023/04/13 09:18:19;;;;;;;;;;;12.10;99.90;;;;;;5021499;28;20024;-75
2023/04/13 09:20:55;;;;;;;;;;;12.60;99.90;;;;;;5008051;28;19933;-75
2023/04/13 09:23:22;;;;;;;;;;;13.20;99.90;;;;;;5008395;28;20035;-76
2023/04/13 09:25:52;;;;;;;;;;;13.80;99.90;;;;;;5007853;28;20492;-74
2023/04/13 09:28:20;;;;;;;;;;;14.50;99.90;;;;;;5011797;28;19929;-74
2023/04/13 09:30:47;;;;;;;;;;;15.00;99.90;;;;;;5007080;28;19937;-79
2023/04/13 09:33:14;;;;;;;;;;;15.40;99.90;;;;;;5007854;28;19952;-73
2023/04/13 09:35:41;;;;;;;;;;;15.60;99.90;;;;;;5009969;28;20007;-74
2023/04/13 09:38:10;;;;;;;;;;;15.60;99.90;;;;;;5006949;28;19933;-76
2023/04/13 09:40:47;;;;;;;;;;;15.20;99.90;;;;;;5020928;28;19968;-77
2023/04/13 09:43:15;;;;;;;;;;;14.90;99.90;;;;;;5011196;28;19940;-73
2023/04/13 09:45:43;;;;;;;;;;;14.50;99.90;;;;;;5009159;28;20015;-76
2023/04/13 09:48:16;;;;;;;;;;;14.10;99.90;;;;;;5009521;28;19929;-73
2023/04/13 09:50:43;;;;;;;;;;;13.80;99.90;;;;;;5015768;28;19940;-73
2023/04/13 09:53:10;;;;;;;;;;;13.50;99.90;;;;;;5019283;28;20009;-74
2023/04/13 09:55:38;;;;;;;;;;;13.30;99.90;;;;;;5017259;28;19936;-78
2023/04/13 09:58:08;;;;;;;;;;;13.30;99.90;;;;;;5013405;28;19933;-76
2023/04/13 10:00:37;;;;;;;;;;;13.30;99.90;;;;;;5030552;28;19929;-77
2023/04/13 10:03:05;;;;;;;;;;;13.20;99.90;;;;;;5039080;28;20012;-77
2023/04/13 10:05:34;;;;;;;;;;;13.10;99.90;;;;;;5022207;28;19935;-73
2023/04/13 10:08:01;;;;;;;;;;;13.00;99.90;;;;;;5026543;28;19932;-73
2023/04/13 10:10:27;;;;;;;;;;;12.90;99.90;;;;;;5023771;28;19940;-74
2023/04/13 10:12:56;;;;;;;;;;;12.70;99.90;;;;;;5022974;28;19934;-73
2023/04/13 10:15:30;;;;;;;;;;;12.60;99.90;;;;;;5017806;28;19985;-73
2023/04/13 10:18:06;;;;;;;;;;;12.50;99.90;;;;;;5015474;28;20212;-74
2023/04/13 10:20:34;;;;;;;;;;;12.50;99.90;;;;;;5019765;28;19933;-73
2023/04/13 10:23:01;;;;;;;;;;;12.70;99.90;;;;;;5010675;28;20484;-74
2023/04/13 10:25:27;;;;;;;;;;;12.90;99.90;;;;;;5011728;28;19961;-74
2023/04/13 10:27:57;;;;;;;;;;;13.10;99.90;;;;;;5014485;28;20331;-76
2023/04/13 10:30:26;;;;;;;;;;;13.20;99.90;;;;;;5020399;28;19977;-76
2023/04/13 10:33:07;;;;;;;;;;;13.20;99.90;;;;;;5015944;28;19988;-78
2023/04/13 10:35:35;;;;;;;;;;;13.20;99.90;;;;;;5018754;28;20285;-73
2023/04/13 10:38:02;;;;;;;;;;;13.30;99.90;;;;;;5014131;28;19953;-76
2023/04/13 10:40:29;;;;;;;;;;;13.50;99.90;;;;;;5013192;28;19926;-73
2023/04/13 10:42:56;;;;;;;;;;;13.80;99.90;;;;;;5019416;28;19934;-73
2023/04/13 10:45:24;;;;;;;;;;;14.20;99.90;;;;;;5022095;28;20303;-74
2023/04/13 10:47:51;;;;;;;;;;;14.70;99.90;;;;;;5022267;28;19933;-73
2023/04/13 10:50:21;;;;;;;;;;;15.20;99.90;;;;;;5021444;28;19933;-73
2023/04/13 10:52:58;;;;;;;;;;;15.60;99.90;;;;;;5037753;28;20278;-74
2023/04/13 10:55:26;;;;;;;;;;;15.80;99.90;;;;;;5023086;28;19933;-74
2023/04/13 10:57:53;;;;;;;;;;;15.90;99.90;;;;;;5018913;28;20031;-74
2023/04/13 11:00:21;;;;;;;;;;;15.70;99.90;;;;;;5015339;28;20287;-73
2023/04/13 11:02:50;;;;;;;;;;;15.50;99.90;;;;;;5016757;28;20221;-74
2023/04/13 11:05:34;;;;;;;;;;;15.20;99.90;;;;;;5464939;22;19933;-74
2023/04/13 11:08:01;;;;;;;;;;;14.70;99.90;;;;;;5035130;28;19939;-75
2023/04/13 11:10:28;;;;;;;;;;;15.60;99.90;;;;;;5024385;28;20436;-73
2023/04/13 11:12:56;;;;;;;;;;;14.50;99.90;;;;;;5034888;28;20345;-74
2023/04/13 11:15:23;;;;;;;;;;;14.60;99.90;;;;;;5027275;28;19937;-74
2023/04/13 11:17:51;;;;;;;;;;;15.90;99.90;;;;;;5038761;22;19941;-80
2023/04/13 11:20:18;;;;;;;;;;;14.60;99.90;;;;;;5014136;28;20496;-80
2023/04/13 11:22:46;;;;;;;;;;;14.40;99.90;;;;;;5026138;28;19933;-80
2023/04/13 11:25:13;;;;;;;;;;;14.30;99.90;;;;;;5026250;28;20463;-79
2023/04/13 11:30:14;;;;;;;;;;;14.20;99.90;;;;;;5036530;28;19961;-79
2023/04/13 11:32:44;;;;;;;;;;;14.30;99.90;;;;;;5037989;28;19925;-80
2023/04/13 11:35:17;;;;;;;;;;;14.50;99.90;;;;;;5038800;28;19931;-79
2023/04/13 11:37:48;;;;;;;;;;;14.80;99.90;;;;;;5041241;28;19925;-85
2023/04/13 11:40:20;;;;;;;;;;;15.10;99.90;;;;;;5036009;28;19931;-79
2023/04/13 11:42:47;;;;;;;;;;;15.10;99.90;;;;;;5038275;28;19933;-85
2023/04/13 11:45:16;;;;;;;;;;;15.00;99.90;;;;;;5037430;28;19925;-85
2023/04/13 11:47:44;;;;;;;;;;;14.90;99.90;;;;;;5036246;28;19976;-83
2023/04/13 11:50:12;;;;;;;;;;;14.90;99.90;;;;;;5040824;28;20032;-83
2023/04/13 11:52:40;;;;;;;;;;;15.00;99.90;;;;;;5040077;28;20385;-83
2023/04/13 11:55:09;;;;;;;;;;;15.00;99.90;;;;;;5041162;28;19924;-84
2023/04/13 11:57:36;;;;;;;;;;;15.00;99.90;;;;;;5040092;28;19932;-84
2023/04/13 12:00:10;;;;;;;;;;;15.10;99.90;;;;;;5039233;28;19925;-84
2023/04/13 12:02:40;;;;;;;;;;;15.00;99.90;;;;;;5042014;28;20344;-85
2023/04/13 12:05:08;;;;;;;;;;;15.10;99.90;;;;;;5040495;28;19940;-86
2023/04/13 12:07:40;;;;;;;;;;;15.20;99.90;;;;;;5042976;28;19976;-86
2023/04/13 12:10:09;;;;;;;;;;;15.40;99.90;;;;;;5045433;28;19936;-84
2023/04/13 12:12:45;;;;;;;;;;;15.50;99.90;;;;;;5045704;28;20007;-85
2023/04/13 12:15:13;;;;;;;;;;;15.70;99.90;;;;;;5042086;28;19925;-85
2023/04/13 12:17:40;;;;;;;;;;;16.10;99.90;;;;;;5042793;28;19929;-85
2023/04/13 12:20:13;;;;;;;;;;;16.50;99.90;;;;;;5041915;28;19931;-84
2023/04/13 12:22:41;;;;;;;;;;;17.00;99.90;;;;;;5042463;28;19940;-85
2023/04/13 12:25:18;;;;;;;;;;;17.30;99.90;;;;;;5040539;28;20043;-85
2023/04/13 12:27:45;;;;;;;;;;;17.40;99.90;;;;;;5043073;28;19965;-85
2023/04/13 12:30:14;;;;;;;;;;;17.50;99.90;;;;;;5042126;28;20024;-85
2023/04/13 12:32:44;;;;;;;;;;;17.60;99.90;;;;;;5045114;28;19944;-82
2023/04/13 12:35:13;;;;;;;;;;;17.60;99.90;;;;;;5045573;28;20288;-81
2023/04/13 12:37:41;;;;;;;;;;;17.20;99.90;;;;;;5043672;28;19932;-82
2023/04/13 12:40:11;;;;;;;;;;;16.80;99.90;;;;;;5044642;28;19929;-82
2023/04/13 12:42:40;;;;;;;;;;;16.50;99.90;;;;;;5043839;28;19929;-82
2023/04/13 12:45:08;;;;;;;;;;;16.30;99.90;;;;;;5048839;28;19929;-82
2023/04/13 12:47:35;;;;;;;;;;;16.30;99.90;;;;;;5044604;28;20031;-82
2023/04/13 12:50:03;;;;;;;;;;;16.40;99.90;;;;;;5044082;28;19929;-81
2023/04/13 12:52:33;;;;;;;;;;;16.60;99.90;;;;;;5043838;28;19936;-81
2023/04/13 12:55:01;;;;;;;;;;;16.80;99.90;;;;;;5035097;28;19947;-80
2023/04/13 12:57:28;;;;;;;;;;;17.00;99.90;;;;;;5030809;28;19964;-79
2023/04/13 12:59:57;;;;;;;;;;;17.10;99.90;;;;;;5021191;28;19964;-79
2023/04/13 13:02:25;;;;;;;;;;;17.20;99.90;;;;;;5026479;28;20408;-77
2023/04/13 13:04:55;;;;;;;;;;;17.10;99.90;;;;;;5018080;28;19926;-78
2023/04/13 13:07:23;;;;;;;;;;;16.90;99.90;;;;;;5027076;28;19940;-79
2023/04/13 13:09:50;;;;;;;;;;;16.60;99.90;;;;;;5023894;28;19933;-78
2023/04/13 13:12:18;;;;;;;;;;;16.70;99.90;;;;;;5022524;28;19979;-79
2023/04/13 13:14:45;;;;;;;;;;;16.80;99.90;;;;;;5021794;28;19930;-78
2023/04/13 13:17:14;;;;;;;;;;;16.80;99.90;;;;;;5015098;28;19940;-78
2023/04/13 13:19:41;;;;;;;;;;;17.00;99.90;;;;;;5014365;28;19940;-78
2023/04/13 13:22:08;;;;;;;;;;;17.20;99.90;;;;;;5033015;28;19976;-84
2023/04/13 13:24:35;;;;;;;;;;;17.40;99.90;;;;;;5034741;28;19951;-87
2023/04/13 13:27:02;;;;;;;;;;;17.50;99.90;;;;;;5020764;28;19992;-80
2023/04/13 13:29:32;;;;;;;;;;;17.60;99.90;;;;;;5019882;28;19933;-79
2023/04/13 13:31:59;;;;;;;;;;;17.50;99.90;;;;;;5019079;28;20965;-78
2023/04/13 13:34:27;;;;;;;;;;;17.20;99.90;;;;;;5016983;28;19979;-80
2023/04/13 13:36:54;;;;;;;;;;;17.00;99.90;;;;;;5022824;28;19929;-80
2023/04/13 13:39:21;;;;;;;;;;;16.80;99.90;;;;;;5019034;28;19925;-80
2023/04/13 13:41:48;;;;;;;;;;;16.50;99.90;;;;;;5020270;28;19948;-79
2023/04/13 13:44:15;;;;;;;;;;;16.40;99.90;;;;;;5020698;28;19972;-80
2023/04/13 13:46:42;;;;;;;;;;;16.20;99.90;;;;;;5034865;28;19937;-79
2023/04/13 13:49:10;;;;;;;;;;;15.90;99.90;;;;;;5022957;28;20017;-80
2023/04/13 13:52:02;;;;;;;;;;;15.70;99.90;;;;;;5035855;28;20039;-79
2023/04/13 13:54:33;;;;;;;;;;;15.50;99.90;;;;;;5017092;28;19956;-79
2023/04/13 13:57:00;;;;;;;;;;;15.40;99.90;;;;;;5021559;28;19964;-79
2023/04/13 13:59:27;;;;;;;;;;;15.50;99.90;;;;;;5023317;28;19933;-79
2023/04/13 14:01:54;;;;;;;;;;;15.60;99.90;;;;;;5027939;28;20020;-79
2023/04/13 14:04:22;;;;;;;;;;;15.70;99.90;;;;;;5023044;28;19960;-80
2023/04/13 14:06:49;;;;;;;;;;;15.80;99.90;;;;;;5019299;28;19967;-78
2023/04/13 14:09:19;;;;;;;;;;;15.90;99.90;;;;;;5017592;28;19940;-79
2023/04/13 14:11:46;;;;;;;;;;;16.00;99.90;;;;;;5022578;28;19925;-79
2023/04/13 14:14:13;;;;;;;;;;;16.10;99.90;;;;;;5019249;28;19986;-79
2023/04/13 14:16:40;;;;;;;;;;;16.10;99.90;;;;;;5019370;28;19930;-79
2023/04/13 14:19:08;;;;;;;;;;;16.10;99.90;;;;;;5013172;28;19939;-79
2023/04/13 14:21:36;;;;;;;;;;;16.20;99.90;;;;;;5016766;28;20515;-80
2023/04/13 14:24:03;;;;;;;;;;;16.00;99.90;;;;;;5018460;28;19975;-80
2023/04/13 14:26:35;;;;;;;;;;;15.70;99.90;;;;;;5024180;28;19929;-79
2023/04/13 14:29:02;;;;;;;;;;;15.30;99.90;;;;;;5027825;28;20012;-80
2023/04/13 14:31:32;;;;;;;;;;;15.00;99.90;;;;;;5025703;28;19979;-80
2023/04/13 14:34:00;;;;;;;;;;;14.80;99.90;;;;;;5025616;28;19992;-79
2023/04/13 14:36:27;;;;;;;;;;;14.80;99.90;;;;;;5024358;28;19952;-79
2023/04/13 14:38:55;;;;;;;;;;;15.00;99.90;;;;;;5035602;28;19928;-80
2023/04/13 14:41:22;;;;;;;;;;;15.20;99.90;;;;;;5031689;28;19933;-80